sensor_id;sensor_type;location;lat;lon;timestamp;P1;durP1;ratioP1;P2;durP2;ratioP2
36233;SDS011;43467;50.890;5.982;2023-08-17T00:01:23;4.85;;;3.88;;
36233;SDS011;43467;50.890;5.982;2023-08-17T00:03:48;7.50;;;5.03;;
36233;SDS011;43467;50.890;5.982;2023-08-17T00:06:14;8.20;;;5.30;;
36233;SDS011;43467;50.890;5.982;2023-08-17T00:08:39;10.00;;;6.05;;
36233;SDS011;43467;50.890;5.982;2023-08-17T00:11:04;7.25;;;5.38;;
36233;SDS011;43467;50.890;5.982;2023-08-17T00:13:30;8.25;;;5.88;;
36233;SDS011;43467;50.890;5.982;2023-08-17T00:15:55;10.13;;;6.85;;
36233;SDS011;43467;50.890;5.982;2023-08-17T00:18:20;9.15;;;7.40;;
36233;SDS011;43467;50.890;5.982;2023-08-17T00:20:46;10.20;;;7.60;;
36233;SDS011;43467;50.890;5.982;2023-08-17T00:23:11;9.25;;;6.40;;
36233;SDS011;43467;50.890;5.982;2023-08-17T00:25:36;8.57;;;6.95;;
36233;SDS011;43467;50.890;5.982;2023-08-17T00:28:02;9.63;;;6.60;;
36233;SDS011;43467;50.890;5.982;2023-08-17T00:30:27;9.50;;;6.90;;
36233;SDS011;43467;50.890;5.982;2023-08-17T00:32:53;11.70;;;7.95;;
36233;SDS011;43467;50.890;5.982;2023-08-17T00:35:18;11.63;;;7.45;;
36233;SDS011;43467;50.890;5.982;2023-08-17T00:37:43;8.23;;;7.30;;
36233;SDS011;43467;50.890;5.982;2023-08-17T00:40:09;7.80;;;6.50;;
36233;SDS011;43467;50.890;5.982;2023-08-17T00:42:35;12.35;;;7.57;;
36233;SDS011;43467;50.890;5.982;2023-08-17T00:45:00;14.23;;;7.53;;
36233;SDS011;43467;50.890;5.982;2023-08-17T00:47:26;8.45;;;6.65;;
36233;SDS011;43467;50.890;5.982;2023-08-17T00:49:53;8.73;;;7.13;;
36233;SDS011;43467;50.890;5.982;2023-08-17T00:52:19;11.00;;;7.97;;
36233;SDS011;43467;50.890;5.982;2023-08-17T00:54:44;8.95;;;7.05;;
36233;SDS011;43467;50.890;5.982;2023-08-17T00:57:09;10.70;;;7.32;;
36233;SDS011;43467;50.890;5.982;2023-08-17T00:59:35;11.40;;;7.80;;
36233;SDS011;43467;50.890;5.982;2023-08-17T01:02:01;11.90;;;7.50;;
36233;SDS011;43467;50.890;5.982;2023-08-17T01:04:27;10.20;;;7.28;;
36233;SDS011;43467;50.890;5.982;2023-08-17T01:06:52;9.70;;;6.70;;
36233;SDS011;43467;50.890;5.982;2023-08-17T01:09:18;9.23;;;6.95;;
36233;SDS011;43467;50.890;5.982;2023-08-17T01:11:53;12.00;;;7.00;;
36233;SDS011;43467;50.890;5.982;2023-08-17T01:14:34;11.50;;;7.70;;
36233;SDS011;43467;50.890;5.982;2023-08-17T01:19:37;12.07;;;8.48;;
36233;SDS011;43467;50.890;5.982;2023-08-17T01:22:05;9.90;;;7.25;;
36233;SDS011;43467;50.890;5.982;2023-08-17T01:24:33;13.15;;;7.93;;
36233;SDS011;43467;50.890;5.982;2023-08-17T01:26:58;13.23;;;8.32;;
36233;SDS011;43467;50.890;5.982;2023-08-17T01:29:24;11.80;;;7.90;;
36233;SDS011;43467;50.890;5.982;2023-08-17T01:31:53;9.35;;;6.80;;
36233;SDS011;43467;50.890;5.982;2023-08-17T01:34:25;10.98;;;7.82;;
36233;SDS011;43467;50.890;5.982;2023-08-17T01:37:00;10.65;;;7.60;;
36233;SDS011;43467;50.890;5.982;2023-08-17T01:39:32;12.23;;;8.10;;
36233;SDS011;43467;50.890;5.982;2023-08-17T01:42:02;10.82;;;6.47;;
36233;SDS011;43467;50.890;5.982;2023-08-17T01:44:29;11.48;;;7.07;;
36233;SDS011;43467;50.890;5.982;2023-08-17T01:46:55;9.63;;;7.10;;
36233;SDS011;43467;50.890;5.982;2023-08-17T01:49:20;10.45;;;6.88;;
36233;SDS011;43467;50.890;5.982;2023-08-17T01:51:45;11.57;;;8.10;;
36233;SDS011;43467;50.890;5.982;2023-08-17T01:54:11;13.32;;;8.50;;
36233;SDS011;43467;50.890;5.982;2023-08-17T01:56:36;11.57;;;8.10;;
36233;SDS011;43467;50.890;5.982;2023-08-17T01:59:02;10.07;;;7.60;;
36233;SDS011;43467;50.890;5.982;2023-08-17T02:01:28;15.27;;;8.77;;
36233;SDS011;43467;50.890;5.982;2023-08-17T02:03:53;12.75;;;8.13;;
36233;SDS011;43467;50.890;5.982;2023-08-17T02:06:18;13.30;;;8.68;;
36233;SDS011;43467;50.890;5.982;2023-08-17T02:08:44;10.68;;;7.95;;
36233;SDS011;43467;50.890;5.982;2023-08-17T02:11:10;16.27;;;8.38;;
36233;SDS011;43467;50.890;5.982;2023-08-17T02:13:35;18.13;;;9.52;;
36233;SDS011;43467;50.890;5.982;2023-08-17T02:16:02;11.90;;;8.93;;
36233;SDS011;43467;50.890;5.982;2023-08-17T02:18:29;15.55;;;9.50;;
36233;SDS011;43467;50.890;5.982;2023-08-17T02:20:56;12.55;;;9.68;;
36233;SDS011;43467;50.890;5.982;2023-08-17T02:23:21;13.18;;;9.18;;
36233;SDS011;43467;50.890;5.982;2023-08-17T02:25:47;13.88;;;10.07;;
36233;SDS011;43467;50.890;5.982;2023-08-17T02:28:12;13.90;;;10.38;;
36233;SDS011;43467;50.890;5.982;2023-08-17T02:30:38;13.02;;;10.10;;
36233;SDS011;43467;50.890;5.982;2023-08-17T02:33:03;13.85;;;11.05;;
36233;SDS011;43467;50.890;5.982;2023-08-17T02:35:29;16.98;;;12.02;;
36233;SDS011;43467;50.890;5.982;2023-08-17T02:37:55;16.73;;;13.32;;
36233;SDS011;43467;50.890;5.982;2023-08-17T02:40:20;20.48;;;15.25;;
36233;SDS011;43467;50.890;5.982;2023-08-17T02:42:46;19.60;;;14.95;;
36233;SDS011;43467;50.890;5.982;2023-08-17T02:45:11;22.80;;;15.38;;
36233;SDS011;43467;50.890;5.982;2023-08-17T02:47:36;21.70;;;16.13;;
36233;SDS011;43467;50.890;5.982;2023-08-17T02:50:02;20.58;;;14.98;;
36233;SDS011;43467;50.890;5.982;2023-08-17T02:52:27;20.65;;;15.10;;
36233;SDS011;43467;50.890;5.982;2023-08-17T02:54:53;21.05;;;15.15;;
36233;SDS011;43467;50.890;5.982;2023-08-17T02:57:18;19.50;;;15.43;;
36233;SDS011;43467;50.890;5.982;2023-08-17T02:59:43;17.45;;;14.38;;
36233;SDS011;43467;50.890;5.982;2023-08-17T03:02:09;23.45;;;15.80;;
36233;SDS011;43467;50.890;5.982;2023-08-17T03:04:34;18.98;;;14.35;;
36233;SDS011;43467;50.890;5.982;2023-08-17T03:07:00;18.33;;;15.45;;
36233;SDS011;43467;50.890;5.982;2023-08-17T03:09:25;19.92;;;14.45;;
36233;SDS011;43467;50.890;5.982;2023-08-17T03:11:51;21.75;;;15.90;;
36233;SDS011;43467;50.890;5.982;2023-08-17T03:14:17;16.70;;;14.18;;
36233;SDS011;43467;50.890;5.982;2023-08-17T03:16:42;16.55;;;13.88;;
36233;SDS011;43467;50.890;5.982;2023-08-17T03:19:08;20.90;;;15.10;;
36233;SDS011;43467;50.890;5.982;2023-08-17T03:21:36;18.83;;;12.93;;
36233;SDS011;43467;50.890;5.982;2023-08-17T03:24:01;17.63;;;13.88;;
36233;SDS011;43467;50.890;5.982;2023-08-17T03:26:26;19.70;;;14.32;;
36233;SDS011;43467;50.890;5.982;2023-08-17T03:28:52;21.45;;;14.10;;
36233;SDS011;43467;50.890;5.982;2023-08-17T03:31:19;14.90;;;12.30;;
36233;SDS011;43467;50.890;5.982;2023-08-17T03:33:46;17.65;;;13.68;;
36233;SDS011;43467;50.890;5.982;2023-08-17T03:36:11;18.85;;;13.45;;
36233;SDS011;43467;50.890;5.982;2023-08-17T03:38:36;20.15;;;14.25;;
36233;SDS011;43467;50.890;5.982;2023-08-17T03:41:04;17.65;;;13.93;;
36233;SDS011;43467;50.890;5.982;2023-08-17T03:43:30;19.45;;;14.32;;
36233;SDS011;43467;50.890;5.982;2023-08-17T03:45:55;17.05;;;13.43;;
36233;SDS011;43467;50.890;5.982;2023-08-17T03:48:21;20.90;;;14.73;;
36233;SDS011;43467;50.890;5.982;2023-08-17T03:50:50;15.57;;;13.07;;
36233;SDS011;43467;50.890;5.982;2023-08-17T03:53:17;20.48;;;14.32;;
36233;SDS011;43467;50.890;5.982;2023-08-17T03:55:49;16.17;;;13.20;;
36233;SDS011;43467;50.890;5.982;2023-08-17T03:58:15;20.15;;;14.30;;
36233;SDS011;43467;50.890;5.982;2023-08-17T04:00:41;14.10;;;12.25;;
36233;SDS011;43467;50.890;5.982;2023-08-17T04:03:07;20.48;;;14.05;;
36233;SDS011;43467;50.890;5.982;2023-08-17T04:05:32;18.90;;;13.25;;
36233;SDS011;43467;50.890;5.982;2023-08-17T04:07:58;18.25;;;12.90;;
36233;SDS011;43467;50.890;5.982;2023-08-17T04:10:28;19.65;;;14.32;;
36233;SDS011;43467;50.890;5.982;2023-08-17T04:12:55;21.15;;;13.52;;
36233;SDS011;43467;50.890;5.982;2023-08-17T04:15:21;22.20;;;14.07;;
36233;SDS011;43467;50.890;5.982;2023-08-17T04:17:46;20.75;;;16.08;;
36233;SDS011;43467;50.890;5.982;2023-08-17T04:20:12;20.60;;;14.80;;
36233;SDS011;43467;50.890;5.982;2023-08-17T04:22:37;20.80;;;13.88;;
36233;SDS011;43467;50.890;5.982;2023-08-17T04:25:04;22.23;;;15.05;;
36233;SDS011;43467;50.890;5.982;2023-08-17T04:27:29;20.45;;;14.57;;
36233;SDS011;43467;50.890;5.982;2023-08-17T04:29:55;23.55;;;16.27;;
36233;SDS011;43467;50.890;5.982;2023-08-17T04:32:20;26.15;;;18.45;;
36233;SDS011;43467;50.890;5.982;2023-08-17T04:34:46;24.48;;;18.13;;
36233;SDS011;43467;50.890;5.982;2023-08-17T04:37:11;28.92;;;16.67;;
36233;SDS011;43467;50.890;5.982;2023-08-17T04:39:37;20.00;;;15.25;;
36233;SDS011;43467;50.890;5.982;2023-08-17T04:42:03;21.25;;;17.02;;
36233;SDS011;43467;50.890;5.982;2023-08-17T04:44:29;22.52;;;17.77;;
36233;SDS011;43467;50.890;5.982;2023-08-17T04:46:54;22.75;;;17.77;;
36233;SDS011;43467;50.890;5.982;2023-08-17T04:49:20;23.02;;;17.10;;
36233;SDS011;43467;50.890;5.982;2023-08-17T04:51:45;23.00;;;18.00;;
36233;SDS011;43467;50.890;5.982;2023-08-17T04:54:11;21.85;;;16.48;;
36233;SDS011;43467;50.890;5.982;2023-08-17T04:56:36;18.02;;;14.52;;
36233;SDS011;43467;50.890;5.982;2023-08-17T04:59:02;20.70;;;14.93;;
36233;SDS011;43467;50.890;5.982;2023-08-17T05:01:27;22.40;;;16.60;;
36233;SDS011;43467;50.890;5.982;2023-08-17T05:03:53;22.92;;;16.00;;
36233;SDS011;43467;50.890;5.982;2023-08-17T05:06:18;21.75;;;16.13;;
36233;SDS011;43467;50.890;5.982;2023-08-17T05:08:43;21.50;;;15.23;;
36233;SDS011;43467;50.890;5.982;2023-08-17T05:11:09;24.67;;;15.82;;
36233;SDS011;43467;50.890;5.982;2023-08-17T05:13:34;25.98;;;15.73;;
36233;SDS011;43467;50.890;5.982;2023-08-17T05:15:59;24.30;;;15.40;;
36233;SDS011;43467;50.890;5.982;2023-08-17T05:18:25;27.20;;;17.85;;
36233;SDS011;43467;50.890;5.982;2023-08-17T05:20:50;19.92;;;15.45;;
36233;SDS011;43467;50.890;5.982;2023-08-17T05:23:15;22.77;;;15.30;;
36233;SDS011;43467;50.890;5.982;2023-08-17T05:25:41;22.70;;;16.02;;
36233;SDS011;43467;50.890;5.982;2023-08-17T05:28:07;23.80;;;16.23;;
36233;SDS011;43467;50.890;5.982;2023-08-17T05:30:33;23.60;;;15.57;;
36233;SDS011;43467;50.890;5.982;2023-08-17T05:32:58;25.23;;;18.15;;
36233;SDS011;43467;50.890;5.982;2023-08-17T05:35:24;27.38;;;16.50;;
36233;SDS011;43467;50.890;5.982;2023-08-17T05:37:49;22.77;;;16.20;;
36233;SDS011;43467;50.890;5.982;2023-08-17T05:40:15;21.08;;;16.48;;
36233;SDS011;43467;50.890;5.982;2023-08-17T05:42:40;26.30;;;18.17;;
36233;SDS011;43467;50.890;5.982;2023-08-17T05:45:06;29.05;;;19.42;;
36233;SDS011;43467;50.890;5.982;2023-08-17T05:47:32;28.33;;;17.83;;
36233;SDS011;43467;50.890;5.982;2023-08-17T05:49:58;26.25;;;18.17;;
36233;SDS011;43467;50.890;5.982;2023-08-17T05:52:23;35.70;;;22.90;;
36233;SDS011;43467;50.890;5.982;2023-08-17T05:54:48;36.03;;;23.75;;
36233;SDS011;43467;50.890;5.982;2023-08-17T05:57:14;33.60;;;20.05;;
36233;SDS011;43467;50.890;5.982;2023-08-17T05:59:39;32.15;;;20.85;;
36233;SDS011;43467;50.890;5.982;2023-08-17T06:02:05;38.55;;;21.95;;
36233;SDS011;43467;50.890;5.982;2023-08-17T06:04:30;36.30;;;21.92;;
36233;SDS011;43467;50.890;5.982;2023-08-17T06:06:56;29.08;;;21.65;;
36233;SDS011;43467;50.890;5.982;2023-08-17T06:09:21;37.40;;;23.13;;
36233;SDS011;43467;50.890;5.982;2023-08-17T06:11:47;44.33;;;25.10;;
36233;SDS011;43467;50.890;5.982;2023-08-17T06:14:12;33.70;;;23.65;;
36233;SDS011;43467;50.890;5.982;2023-08-17T06:16:38;36.30;;;24.02;;
36233;SDS011;43467;50.890;5.982;2023-08-17T06:19:04;34.25;;;21.25;;
36233;SDS011;43467;50.890;5.982;2023-08-17T06:21:29;35.22;;;23.23;;
36233;SDS011;43467;50.890;5.982;2023-08-17T06:23:55;39.45;;;23.45;;
36233;SDS011;43467;50.890;5.982;2023-08-17T06:26:20;48.33;;;27.45;;
36233;SDS011;43467;50.890;5.982;2023-08-17T06:28:45;41.38;;;27.10;;
36233;SDS011;43467;50.890;5.982;2023-08-17T06:31:14;44.65;;;25.67;;
36233;SDS011;43467;50.890;5.982;2023-08-17T06:33:39;40.25;;;25.50;;
36233;SDS011;43467;50.890;5.982;2023-08-17T06:36:07;41.03;;;26.88;;
36233;SDS011;43467;50.890;5.982;2023-08-17T06:38:32;41.25;;;25.80;;
36233;SDS011;43467;50.890;5.982;2023-08-17T06:40:58;35.58;;;25.35;;
36233;SDS011;43467;50.890;5.982;2023-08-17T06:43:23;45.60;;;29.08;;
36233;SDS011;43467;50.890;5.982;2023-08-17T06:45:49;42.38;;;24.67;;
36233;SDS011;43467;50.890;5.982;2023-08-17T06:48:14;45.03;;;27.73;;
36233;SDS011;43467;50.890;5.982;2023-08-17T06:50:39;39.83;;;25.35;;
36233;SDS011;43467;50.890;5.982;2023-08-17T06:53:05;45.63;;;26.63;;
36233;SDS011;43467;50.890;5.982;2023-08-17T06:55:30;44.15;;;28.92;;
36233;SDS011;43467;50.890;5.982;2023-08-17T06:57:56;41.72;;;28.02;;
36233;SDS011;43467;50.890;5.982;2023-08-17T07:00:22;47.00;;;29.17;;
36233;SDS011;43467;50.890;5.982;2023-08-17T07:02:47;39.63;;;27.13;;
36233;SDS011;43467;50.890;5.982;2023-08-17T07:05:14;44.60;;;29.95;;
36233;SDS011;43467;50.890;5.982;2023-08-17T07:07:40;48.35;;;28.75;;
36233;SDS011;43467;50.890;5.982;2023-08-17T07:10:05;45.35;;;27.42;;
36233;SDS011;43467;50.890;5.982;2023-08-17T07:12:32;43.85;;;28.23;;
36233;SDS011;43467;50.890;5.982;2023-08-17T07:14:57;46.50;;;30.88;;
36233;SDS011;43467;50.890;5.982;2023-08-17T07:17:23;40.25;;;27.08;;
36233;SDS011;43467;50.890;5.982;2023-08-17T07:19:48;54.63;;;30.30;;
36233;SDS011;43467;50.890;5.982;2023-08-17T07:22:14;52.08;;;28.90;;
36233;SDS011;43467;50.890;5.982;2023-08-17T07:24:41;50.15;;;29.30;;
36233;SDS011;43467;50.890;5.982;2023-08-17T07:27:06;45.95;;;28.27;;
36233;SDS011;43467;50.890;5.982;2023-08-17T07:29:32;52.47;;;28.33;;
36233;SDS011;43467;50.890;5.982;2023-08-17T07:31:57;41.03;;;27.92;;
36233;SDS011;43467;50.890;5.982;2023-08-17T07:34:26;42.63;;;26.25;;
36233;SDS011;43467;50.890;5.982;2023-08-17T07:36:52;44.03;;;26.92;;
36233;SDS011;43467;50.890;5.982;2023-08-17T07:39:17;47.13;;;29.13;;
36233;SDS011;43467;50.890;5.982;2023-08-17T07:41:43;45.45;;;27.40;;
36233;SDS011;43467;50.890;5.982;2023-08-17T07:44:09;46.03;;;25.38;;
36233;SDS011;43467;50.890;5.982;2023-08-17T07:46:34;49.78;;;27.27;;
36233;SDS011;43467;50.890;5.982;2023-08-17T07:49:00;49.22;;;28.17;;
36233;SDS011;43467;50.890;5.982;2023-08-17T07:51:25;52.75;;;32.38;;
36233;SDS011;43467;50.890;5.982;2023-08-17T07:53:50;47.90;;;30.33;;
36233;SDS011;43467;50.890;5.982;2023-08-17T07:56:16;46.70;;;30.35;;
36233;SDS011;43467;50.890;5.982;2023-08-17T07:58:41;49.72;;;31.17;;
36233;SDS011;43467;50.890;5.982;2023-08-17T08:01:06;49.13;;;31.50;;
36233;SDS011;43467;50.890;5.982;2023-08-17T08:03:32;55.50;;;30.10;;
36233;SDS011;43467;50.890;5.982;2023-08-17T08:05:57;52.88;;;30.25;;
36233;SDS011;43467;50.890;5.982;2023-08-17T08:08:23;57.47;;;30.83;;
36233;SDS011;43467;50.890;5.982;2023-08-17T08:10:48;55.75;;;32.50;;
36233;SDS011;43467;50.890;5.982;2023-08-17T08:13:14;54.42;;;30.98;;
36233;SDS011;43467;50.890;5.982;2023-08-17T08:15:39;52.85;;;33.17;;
36233;SDS011;43467;50.890;5.982;2023-08-17T08:18:05;52.13;;;32.60;;
36233;SDS011;43467;50.890;5.982;2023-08-17T08:20:30;53.15;;;33.00;;
36233;SDS011;43467;50.890;5.982;2023-08-17T08:22:55;50.10;;;30.60;;
36233;SDS011;43467;50.890;5.982;2023-08-17T08:25:21;50.72;;;32.25;;
36233;SDS011;43467;50.890;5.982;2023-08-17T08:27:46;51.08;;;31.08;;
36233;SDS011;43467;50.890;5.982;2023-08-17T08:30:11;51.97;;;31.17;;
36233;SDS011;43467;50.890;5.982;2023-08-17T08:32:37;51.10;;;30.27;;
36233;SDS011;43467;50.890;5.982;2023-08-17T08:35:02;49.92;;;31.27;;
36233;SDS011;43467;50.890;5.982;2023-08-17T08:37:28;45.33;;;29.02;;
36233;SDS011;43467;50.890;5.982;2023-08-17T08:39:54;48.10;;;29.98;;
36233;SDS011;43467;50.890;5.982;2023-08-17T08:42:21;44.67;;;28.33;;
36233;SDS011;43467;50.890;5.982;2023-08-17T08:44:47;43.65;;;29.98;;
36233;SDS011;43467;50.890;5.982;2023-08-17T08:47:16;45.17;;;29.42;;
36233;SDS011;43467;50.890;5.982;2023-08-17T08:52:26;39.85;;;26.42;;
36233;SDS011;43467;50.890;5.982;2023-08-17T08:54:57;43.00;;;27.63;;
36233;SDS011;43467;50.890;5.982;2023-08-17T08:57:24;42.47;;;25.98;;
36233;SDS011;43467;50.890;5.982;2023-08-17T08:59:52;39.47;;;27.23;;
36233;SDS011;43467;50.890;5.982;2023-08-17T09:02:18;38.38;;;27.63;;
36233;SDS011;43467;50.890;5.982;2023-08-17T09:04:44;55.47;;;31.73;;
36233;SDS011;43467;50.890;5.982;2023-08-17T09:07:10;68.07;;;34.20;;
36233;SDS011;43467;50.890;5.982;2023-08-17T09:09:37;46.35;;;29.00;;
36233;SDS011;43467;50.890;5.982;2023-08-17T09:12:03;44.92;;;26.70;;
36233;SDS011;43467;50.890;5.982;2023-08-17T09:14:29;44.33;;;27.98;;
36233;SDS011;43467;50.890;5.982;2023-08-17T09:16:54;40.97;;;27.33;;
36233;SDS011;43467;50.890;5.982;2023-08-17T09:19:23;38.50;;;25.00;;
36233;SDS011;43467;50.890;5.982;2023-08-17T09:21:49;37.95;;;27.65;;
36233;SDS011;43467;50.890;5.982;2023-08-17T09:24:15;43.45;;;28.27;;
36233;SDS011;43467;50.890;5.982;2023-08-17T09:26:40;46.08;;;27.80;;
36233;SDS011;43467;50.890;5.982;2023-08-17T09:29:18;43.15;;;27.98;;
36233;SDS011;43467;50.890;5.982;2023-08-17T09:31:45;39.83;;;26.60;;
36233;SDS011;43467;50.890;5.982;2023-08-17T09:34:14;36.65;;;25.15;;
36233;SDS011;43467;50.890;5.982;2023-08-17T09:36:40;40.13;;;27.70;;
36233;SDS011;43467;50.890;5.982;2023-08-17T09:39:06;38.58;;;27.88;;
36233;SDS011;43467;50.890;5.982;2023-08-17T09:41:37;39.63;;;28.00;;
36233;SDS011;43467;50.890;5.982;2023-08-17T09:44:04;43.17;;;27.17;;
36233;SDS011;43467;50.890;5.982;2023-08-17T09:46:30;39.47;;;28.45;;
36233;SDS011;43467;50.890;5.982;2023-08-17T09:48:56;42.92;;;29.63;;
36233;SDS011;43467;50.890;5.982;2023-08-17T09:51:21;36.90;;;27.48;;
36233;SDS011;43467;50.890;5.982;2023-08-17T09:53:51;40.58;;;27.00;;
36233;SDS011;43467;50.890;5.982;2023-08-17T09:56:18;39.72;;;28.83;;
36233;SDS011;43467;50.890;5.982;2023-08-17T09:58:46;43.35;;;28.30;;
36233;SDS011;43467;50.890;5.982;2023-08-17T10:01:12;41.55;;;28.75;;
36233;SDS011;43467;50.890;5.982;2023-08-17T10:03:39;37.88;;;26.75;;
36233;SDS011;43467;50.890;5.982;2023-08-17T10:06:09;44.85;;;28.30;;
36233;SDS011;43467;50.890;5.982;2023-08-17T10:08:39;44.08;;;30.15;;
36233;SDS011;43467;50.890;5.982;2023-08-17T10:11:08;41.75;;;29.05;;
36233;SDS011;43467;50.890;5.982;2023-08-17T10:13:42;43.53;;;29.25;;
36233;SDS011;43467;50.890;5.982;2023-08-17T10:21:36;42.15;;;29.90;;
36233;SDS011;43467;50.890;5.982;2023-08-17T10:24:04;40.47;;;30.08;;
36233;SDS011;43467;50.890;5.982;2023-08-17T10:26:32;43.53;;;29.92;;
36233;SDS011;43467;50.890;5.982;2023-08-17T10:28:58;41.95;;;30.58;;
36233;SDS011;43467;50.890;5.982;2023-08-17T10:31:26;46.25;;;30.23;;
36233;SDS011;43467;50.890;5.982;2023-08-17T10:33:52;41.03;;;31.52;;
36233;SDS011;43467;50.890;5.982;2023-08-17T10:36:18;44.30;;;32.47;;
36233;SDS011;43467;50.890;5.982;2023-08-17T10:38:44;47.60;;;32.83;;
36233;SDS011;43467;50.890;5.982;2023-08-17T10:41:13;44.50;;;33.08;;
36233;SDS011;43467;50.890;5.982;2023-08-17T10:43:58;44.83;;;32.47;;
36233;SDS011;43467;50.890;5.982;2023-08-17T10:46:34;50.00;;;34.25;;
36233;SDS011;43467;50.890;5.982;2023-08-17T10:49:01;50.67;;;32.97;;
36233;SDS011;43467;50.890;5.982;2023-08-17T10:51:29;44.45;;;33.17;;
36233;SDS011;43467;50.890;5.982;2023-08-17T10:53:55;51.10;;;35.55;;
36233;SDS011;43467;50.890;5.982;2023-08-17T10:56:27;50.55;;;35.55;;
36233;SDS011;43467;50.890;5.982;2023-08-17T10:58:53;56.30;;;36.90;;
36233;SDS011;43467;50.890;5.982;2023-08-17T11:01:30;58.83;;;39.97;;
36233;SDS011;43467;50.890;5.982;2023-08-17T11:04:10;52.75;;;36.63;;
36233;SDS011;43467;50.890;5.982;2023-08-17T11:06:37;57.33;;;39.47;;
36233;SDS011;43467;50.890;5.982;2023-08-17T11:09:06;54.03;;;38.65;;
36233;SDS011;43467;50.890;5.982;2023-08-17T11:11:32;55.42;;;39.58;;
36233;SDS011;43467;50.890;5.982;2023-08-17T11:13:58;53.60;;;38.97;;
36233;SDS011;43467;50.890;5.982;2023-08-17T11:16:23;54.05;;;37.67;;
36233;SDS011;43467;50.890;5.982;2023-08-17T11:18:49;59.00;;;39.60;;
36233;SDS011;43467;50.890;5.982;2023-08-17T11:21:15;52.92;;;37.50;;
36233;SDS011;43467;50.890;5.982;2023-08-17T11:23:41;57.00;;;37.28;;
36233;SDS011;43467;50.890;5.982;2023-08-17T11:26:07;56.65;;;37.47;;
36233;SDS011;43467;50.890;5.982;2023-08-17T11:28:33;50.05;;;36.97;;
36233;SDS011;43467;50.890;5.982;2023-08-17T11:31:06;52.55;;;37.70;;
36233;SDS011;43467;50.890;5.982;2023-08-17T11:33:34;58.05;;;39.92;;
36233;SDS011;43467;50.890;5.982;2023-08-17T11:36:02;57.53;;;39.05;;
36233;SDS011;43467;50.890;5.982;2023-08-17T11:38:33;57.75;;;39.75;;
36233;SDS011;43467;50.890;5.982;2023-08-17T11:41:09;58.38;;;41.13;;
36233;SDS011;43467;50.890;5.982;2023-08-17T11:43:35;54.85;;;37.67;;
36233;SDS011;43467;50.890;5.982;2023-08-17T11:46:01;53.17;;;37.72;;
36233;SDS011;43467;50.890;5.982;2023-08-17T11:48:27;57.60;;;37.25;;
36233;SDS011;43467;50.890;5.982;2023-08-17T11:50:53;51.75;;;36.47;;
36233;SDS011;43467;50.890;5.982;2023-08-17T11:53:20;55.95;;;38.90;;
36233;SDS011;43467;50.890;5.982;2023-08-17T11:55:45;58.38;;;40.35;;
36233;SDS011;43467;50.890;5.982;2023-08-17T11:58:11;62.90;;;41.50;;
36233;SDS011;43467;50.890;5.982;2023-08-17T12:00:39;63.10;;;42.08;;
36233;SDS011;43467;50.890;5.982;2023-08-17T12:03:06;62.50;;;41.03;;
36233;SDS011;43467;50.890;5.982;2023-08-17T12:05:32;61.33;;;40.50;;
36233;SDS011;43467;50.890;5.982;2023-08-17T12:08:01;53.92;;;37.53;;
36233;SDS011;43467;50.890;5.982;2023-08-17T12:10:33;57.45;;;38.22;;
36233;SDS011;43467;50.890;5.982;2023-08-17T12:13:00;56.25;;;40.55;;
36233;SDS011;43467;50.890;5.982;2023-08-17T12:15:35;60.95;;;41.78;;
36233;SDS011;43467;50.890;5.982;2023-08-17T12:20:27;63.90;;;42.72;;
36233;SDS011;43467;50.890;5.982;2023-08-17T12:22:53;61.80;;;42.47;;
36233;SDS011;43467;50.890;5.982;2023-08-17T12:25:21;62.65;;;41.78;;
36233;SDS011;43467;50.890;5.982;2023-08-17T12:27:48;66.22;;;44.47;;
36233;SDS011;43467;50.890;5.982;2023-08-17T12:30:28;64.75;;;42.70;;
36233;SDS011;43467;50.890;5.982;2023-08-17T12:32:57;70.88;;;45.60;;
36233;SDS011;43467;50.890;5.982;2023-08-17T12:35:22;61.80;;;40.65;;
36233;SDS011;43467;50.890;5.982;2023-08-17T12:37:49;62.25;;;43.35;;
36233;SDS011;43467;50.890;5.982;2023-08-17T12:40:15;60.30;;;42.30;;
36233;SDS011;43467;50.890;5.982;2023-08-17T12:42:41;64.20;;;43.05;;
36233;SDS011;43467;50.890;5.982;2023-08-17T12:45:07;62.80;;;42.45;;
36233;SDS011;43467;50.890;5.982;2023-08-17T12:47:32;63.55;;;42.00;;
36233;SDS011;43467;50.890;5.982;2023-08-17T12:49:58;61.75;;;40.65;;
36233;SDS011;43467;50.890;5.982;2023-08-17T12:52:23;70.05;;;44.25;;
36233;SDS011;43467;50.890;5.982;2023-08-17T12:54:48;60.35;;;41.30;;
36233;SDS011;43467;50.890;5.982;2023-08-17T12:57:14;68.82;;;43.45;;
36233;SDS011;43467;50.890;5.982;2023-08-17T12:59:39;67.45;;;43.55;;
36233;SDS011;43467;50.890;5.982;2023-08-17T13:02:05;66.47;;;44.90;;
36233;SDS011;43467;50.890;5.982;2023-08-17T13:04:30;68.90;;;45.40;;
36233;SDS011;43467;50.890;5.982;2023-08-17T13:06:56;64.38;;;43.80;;
36233;SDS011;43467;50.890;5.982;2023-08-17T13:09:21;68.75;;;46.33;;
36233;SDS011;43467;50.890;5.982;2023-08-17T13:11:47;73.78;;;48.45;;
36233;SDS011;43467;50.890;5.982;2023-08-17T13:14:13;66.15;;;46.22;;
36233;SDS011;43467;50.890;5.982;2023-08-17T13:16:39;75.55;;;46.67;;
36233;SDS011;43467;50.890;5.982;2023-08-17T13:19:04;63.80;;;45.15;;
36233;SDS011;43467;50.890;5.982;2023-08-17T13:21:30;75.28;;;49.28;;
36233;SDS011;43467;50.890;5.982;2023-08-17T13:23:55;75.43;;;47.25;;
36233;SDS011;43467;50.890;5.982;2023-08-17T13:26:21;68.72;;;47.85;;
36233;SDS011;43467;50.890;5.982;2023-08-17T13:28:47;72.65;;;47.28;;
36233;SDS011;43467;50.890;5.982;2023-08-17T13:31:13;68.38;;;46.10;;
36233;SDS011;43467;50.890;5.982;2023-08-17T13:33:39;56.35;;;41.03;;
36233;SDS011;43467;50.890;5.982;2023-08-17T13:36:04;60.28;;;41.15;;
36233;SDS011;43467;50.890;5.982;2023-08-17T13:38:30;69.28;;;45.63;;
36233;SDS011;43467;50.890;5.982;2023-08-17T13:40:56;60.33;;;42.75;;
36233;SDS011;43467;50.890;5.982;2023-08-17T13:43:22;61.45;;;40.85;;
36233;SDS011;43467;50.890;5.982;2023-08-17T13:45:47;55.22;;;39.05;;
36233;SDS011;43467;50.890;5.982;2023-08-17T13:48:12;54.03;;;36.20;;
36233;SDS011;43467;50.890;5.982;2023-08-17T13:50:38;47.65;;;34.03;;
36233;SDS011;43467;50.890;5.982;2023-08-17T13:53:04;50.28;;;34.88;;
36233;SDS011;43467;50.890;5.982;2023-08-17T13:55:30;50.40;;;35.40;;
36233;SDS011;43467;50.890;5.982;2023-08-17T13:57:55;49.75;;;34.15;;
36233;SDS011;43467;50.890;5.982;2023-08-17T14:00:21;43.53;;;32.08;;
36233;SDS011;43467;50.890;5.982;2023-08-17T14:02:47;39.05;;;29.40;;
36233;SDS011;43467;50.890;5.982;2023-08-17T14:05:13;42.10;;;30.23;;
36233;SDS011;43467;50.890;5.982;2023-08-17T14:07:38;37.03;;;26.73;;
36233;SDS011;43467;50.890;5.982;2023-08-17T14:10:04;36.72;;;25.85;;
36233;SDS011;43467;50.890;5.982;2023-08-17T14:12:30;41.08;;;29.00;;
36233;SDS011;43467;50.890;5.982;2023-08-17T14:14:55;43.30;;;28.15;;
36233;SDS011;43467;50.890;5.982;2023-08-17T14:17:20;43.70;;;29.55;;
36233;SDS011;43467;50.890;5.982;2023-08-17T14:19:46;40.55;;;27.90;;
36233;SDS011;43467;50.890;5.982;2023-08-17T14:22:11;43.08;;;27.25;;
36233;SDS011;43467;50.890;5.982;2023-08-17T14:24:36;40.40;;;26.33;;
36233;SDS011;43467;50.890;5.982;2023-08-17T14:27:02;40.70;;;27.40;;
36233;SDS011;43467;50.890;5.982;2023-08-17T14:29:27;39.97;;;26.90;;
36233;SDS011;43467;50.890;5.982;2023-08-17T14:31:53;35.63;;;24.45;;